createdAt,value
2018-07-07T00:00:37.817Z,0
2018-07-07T00:01:46.676Z,0
2018-07-07T00:02:56.089Z,0
2018-07-07T00:04:04.948Z,0
2018-07-07T00:05:13.916Z,0
2018-07-07T00:06:23.059Z,0
2018-07-07T00:07:31.912Z,0
2018-07-07T00:08:40.773Z,0
2018-07-07T00:09:49.632Z,0
2018-07-07T00:10:58.495Z,0
2018-07-07T00:12:07.355Z,0
2018-07-07T00:13:16.217Z,0
2018-07-07T00:14:25.355Z,0
2018-07-07T00:15:34.498Z,0
2018-07-07T00:16:43.733Z,0
2018-07-07T00:17:52.877Z,0
2018-07-07T00:19:01.737Z,0
2018-07-07T00:20:10.597Z,0
2018-07-07T00:21:19.459Z,0
2018-07-07T00:22:28.320Z,0
2018-07-07T00:23:37.185Z,0
2018-07-07T00:24:46.323Z,0
2018-07-07T00:25:55.183Z,0
2018-07-07T00:27:04.083Z,0
2018-07-07T00:28:12.901Z,0
2018-07-07T00:29:21.763Z,0
2018-07-07T00:30:30.630Z,0
2018-07-07T00:31:39.485Z,0
2018-07-07T00:32:48.623Z,0
2018-07-07T00:33:57.488Z,0
2018-07-07T00:35:06.345Z,0
2018-07-07T00:36:15.207Z,0
2018-07-07T00:37:24.066Z,0
2018-07-07T00:38:32.928Z,0
2018-07-07T00:39:41.787Z,0
2018-07-07T00:40:50.925Z,0
2018-07-07T00:42:00.064Z,0
2018-07-07T00:43:08.925Z,0
2018-07-07T00:44:17.790Z,0
2018-07-07T00:45:27.074Z,0
2018-07-07T00:46:35.935Z,0
2018-07-07T00:47:45.079Z,0
2018-07-07T00:48:53.941Z,0
2018-07-07T00:50:03.079Z,0
2018-07-07T00:51:12.313Z,0
2018-07-07T00:52:21.175Z,0
2018-07-07T00:53:30.031Z,0
2018-07-07T00:54:38.894Z,0
2018-07-07T00:55:47.755Z,0
2018-07-07T00:56:56.948Z,0
2018-07-07T00:58:06.360Z,0
2018-07-07T00:59:15.498Z,0
2018-07-07T01:00:24.638Z,0
2018-07-07T01:01:33.778Z,0
2018-07-07T01:02:42.635Z,0
2018-07-07T01:03:51.769Z,0
2018-07-07T01:05:00.634Z,0
2018-07-07T01:06:09.496Z,0
2018-07-07T01:07:18.355Z,0
2018-07-07T01:08:27.219Z,0
2018-07-07T01:09:36.074Z,0
2018-07-07T01:10:44.937Z,0
2018-07-07T01:11:53.798Z,0
2018-07-07T01:13:02.933Z,0
2018-07-07T01:14:11.791Z,0
2018-07-07T01:15:20.650Z,0
2018-07-07T01:16:29.510Z,0
2018-07-07T01:17:38.370Z,0
2018-07-07T01:18:47.506Z,0
2018-07-07T01:19:56.799Z,0
2018-07-07T01:21:05.658Z,0
2018-07-07T01:22:14.519Z,0
2018-07-07T01:23:23.432Z,0
2018-07-07T01:24:32.519Z,0
2018-07-07T01:25:41.383Z,0
2018-07-07T01:26:50.243Z,0
2018-07-07T01:27:59.379Z,0
2018-07-07T01:29:08.240Z,0
2018-07-07T01:30:17.096Z,0
2018-07-07T01:31:25.957Z,0
2018-07-07T01:32:34.816Z,0
2018-07-07T01:33:43.958Z,0
2018-07-07T01:34:52.822Z,0
2018-07-07T01:36:01.958Z,0
2018-07-07T01:37:11.374Z,0
2018-07-07T01:38:20.236Z,0
2018-07-07T01:39:29.095Z,0
2018-07-07T01:40:37.955Z,0
2018-07-07T01:41:46.816Z,0
2018-07-07T01:42:55.676Z,0
2018-07-07T01:44:04.543Z,0
2018-07-07T01:45:13.681Z,0
2018-07-07T01:46:22.544Z,0
2018-07-07T01:47:31.401Z,0
2018-07-07T01:48:40.283Z,0
2018-07-07T01:49:49.473Z,0
2018-07-07T01:50:58.610Z,0
2018-07-07T01:52:08.023Z,0
2018-07-07T01:53:16.882Z,0
2018-07-07T01:54:26.017Z,0
2018-07-07T01:55:34.878Z,0
2018-07-07T01:56:43.734Z,0
2018-07-07T01:57:52.595Z,0
2018-07-07T01:59:01.454Z,0
2018-07-07T02:00:10.313Z,0
2018-07-07T02:01:19.175Z,0
2018-07-07T02:02:28.037Z,0
2018-07-07T02:03:36.902Z,0
2018-07-07T02:04:45.763Z,0
2018-07-07T02:05:54.621Z,0
2018-07-07T02:07:03.804Z,0
2018-07-07T02:08:12.663Z,0
2018-07-07T02:09:21.525Z,0
2018-07-07T02:10:30.721Z,0
2018-07-07T02:11:39.522Z,0
2018-07-07T02:12:48.383Z,0
2018-07-07T02:13:57.517Z,0
2018-07-07T02:15:06.377Z,0
2018-07-07T02:16:15.512Z,0
2018-07-07T02:17:24.524Z,0
2018-07-07T02:18:33.383Z,0
2018-07-07T02:19:42.521Z,0
2018-07-07T02:20:51.381Z,0
2018-07-07T02:22:00.240Z,0
2018-07-07T02:23:09.480Z,0
2018-07-07T02:24:18.615Z,0
2018-07-07T02:25:27.475Z,0
2018-07-07T02:26:36.336Z,0
2018-07-07T02:27:45.194Z,0
2018-07-07T02:28:54.407Z,4
2018-07-07T02:30:03.262Z,4
2018-07-07T02:31:12.132Z,4
2018-07-07T02:32:22.117Z,4
2018-07-07T02:33:31.839Z,4
2018-07-07T02:34:40.978Z,4
2018-07-07T02:35:50.393Z,4
2018-07-07T02:37:00.101Z,8
2018-07-07T02:38:09.791Z,4
2018-07-07T02:39:18.932Z,8
2018-07-07T02:40:27.948Z,8
2018-07-07T02:41:37.087Z,8
2018-07-07T02:42:46.828Z,8
2018-07-07T02:43:55.977Z,12
2018-07-07T02:45:05.108Z,12
2018-07-07T02:46:14.254Z,12
2018-07-07T02:47:23.102Z,16
2018-07-07T02:48:32.238Z,20
2018-07-07T02:49:41.378Z,20
2018-07-07T02:50:50.795Z,24
2018-07-07T02:51:59.657Z,28
2018-07-07T02:53:08.521Z,28
2018-07-07T02:54:18.208Z,32
2018-07-07T02:55:27.624Z,36
2018-07-07T02:56:37.039Z,40
2018-07-07T02:57:46.527Z,44
2018-07-07T02:58:55.953Z,52
2018-07-07T03:00:04.818Z,52
2018-07-07T03:01:13.679Z,56
2018-07-07T03:02:22.537Z,60
2018-07-07T03:03:31.502Z,68
2018-07-07T03:04:40.642Z,76
2018-07-07T03:05:49.500Z,80
2018-07-07T03:06:58.917Z,88
2018-07-07T03:08:07.775Z,96
2018-07-07T03:09:17.192Z,104
2018-07-07T03:10:26.335Z,112
2018-07-07T03:11:35.756Z,120
2018-07-07T03:12:44.617Z,132
2018-07-07T03:13:53.758Z,148
2018-07-07T03:15:03.043Z,152
2018-07-07T03:16:11.905Z,160
2018-07-07T03:17:20.767Z,168
2018-07-07T03:18:29.630Z,184
2018-07-07T03:19:38.489Z,184
2018-07-07T03:20:47.981Z,184
2018-07-07T03:21:57.127Z,192
2018-07-07T03:23:06.544Z,188
2018-07-07T03:24:15.693Z,184
2018-07-07T03:25:24.829Z,184
2018-07-07T03:26:34.397Z,184
2018-07-07T03:27:43.254Z,188
2018-07-07T03:28:52.114Z,208
2018-07-07T03:30:01.255Z,224
2018-07-07T03:31:10.386Z,276
2018-07-07T03:32:20.436Z,300
2018-07-07T03:33:29.294Z,308
2018-07-07T03:34:38.427Z,292
2018-07-07T03:35:47.292Z,308
2018-07-07T03:36:56.150Z,324
2018-07-07T03:38:05.039Z,324
2018-07-07T03:39:14.149Z,312
2018-07-07T03:40:23.011Z,324
2018-07-07T03:41:31.868Z,368
2018-07-07T03:42:41.003Z,404
2018-07-07T03:43:50.012Z,440
2018-07-07T03:44:58.873Z,508
2018-07-07T03:46:07.732Z,544
2018-07-07T03:47:16.692Z,544
2018-07-07T03:48:25.550Z,584
2018-07-07T03:49:34.693Z,596
2018-07-07T03:50:43.831Z,608
2018-07-07T03:51:52.693Z,644
2018-07-07T03:53:01.559Z,688
2018-07-07T03:54:10.428Z,756
2018-07-07T03:55:19.637Z,812
2018-07-07T03:56:28.496Z,820
2018-07-07T03:57:37.355Z,848
2018-07-07T03:58:46.256Z,852
2018-07-07T03:59:55.077Z,864
2018-07-07T04:01:04.088Z,828
2018-07-07T04:02:12.947Z,808
2018-07-07T04:03:21.807Z,824
2018-07-07T04:04:30.671Z,836
2018-07-07T04:05:39.535Z,832
2018-07-07T04:06:48.441Z,824
2018-07-07T04:07:57.251Z,872
2018-07-07T04:09:06.113Z,892
2018-07-07T04:10:14.972Z,884
2018-07-07T04:11:24.118Z,900
2018-07-07T04:12:32.976Z,904
2018-07-07T04:13:42.113Z,912
2018-07-07T04:14:51.246Z,924
2018-07-07T04:16:00.109Z,936
2018-07-07T04:17:09.527Z,944
2018-07-07T04:18:18.810Z,960
2018-07-07T04:19:27.670Z,968
2018-07-07T04:20:36.530Z,980
2018-07-07T04:21:45.943Z,996
2018-07-07T04:22:54.802Z,988
2018-07-07T04:24:03.973Z,992
2018-07-07T04:25:13.107Z,1004
2018-07-07T04:26:21.968Z,1064
2018-07-07T04:27:31.121Z,1256
2018-07-07T04:28:39.981Z,1456
2018-07-07T04:29:48.840Z,1484
2018-07-07T04:30:58.027Z,1436
2018-07-07T04:32:06.838Z,1444
2018-07-07T04:33:15.696Z,1344
2018-07-07T04:34:24.559Z,1292
2018-07-07T04:35:33.414Z,1224
2018-07-07T04:36:42.278Z,1240
2018-07-07T04:37:51.138Z,1204
2018-07-07T04:38:59.997Z,1216
2018-07-07T04:40:08.855Z,1440
2018-07-07T04:41:17.720Z,1500
2018-07-07T04:42:26.580Z,1460
2018-07-07T04:43:35.440Z,1388
2018-07-07T04:44:44.575Z,1464
2018-07-07T04:45:53.774Z,1472
2018-07-07T04:47:03.317Z,1548
2018-07-07T04:48:12.179Z,1500
2018-07-07T04:49:21.039Z,1512
2018-07-07T04:50:29.896Z,1476
2018-07-07T04:51:38.758Z,1288
2018-07-07T04:52:47.771Z,1252
2018-07-07T04:53:57.191Z,1352
2018-07-07T04:55:06.050Z,1344
2018-07-07T04:56:14.912Z,1488
2018-07-07T04:57:23.771Z,1616
2018-07-07T04:58:33.535Z,1824
2018-07-07T04:59:42.395Z,1940
2018-07-07T05:00:51.254Z,2032
2018-07-07T05:02:00.392Z,2056
2018-07-07T05:03:09.254Z,2140
2018-07-07T05:04:18.267Z,2260
2018-07-07T05:05:27.408Z,2352
2018-07-07T05:06:36.268Z,2380
2018-07-07T05:07:45.126Z,2424
2018-07-07T05:08:53.986Z,2380
2018-07-07T05:10:03.226Z,2356
2018-07-07T05:11:12.367Z,2300
2018-07-07T05:12:21.228Z,2268
2018-07-07T05:13:30.370Z,2192
2018-07-07T05:14:39.504Z,2348
2018-07-07T05:15:48.364Z,2180
2018-07-07T05:16:57.226Z,2008
2018-07-07T05:18:06.638Z,2140
2018-07-07T05:19:15.777Z,2212
2018-07-07T05:20:24.639Z,2416
2018-07-07T05:21:34.203Z,2508
2018-07-07T05:22:43.070Z,2748
2018-07-07T05:23:51.928Z,2800
2018-07-07T05:25:00.798Z,2796
2018-07-07T05:26:09.661Z,2932
2018-07-07T05:27:18.522Z,3104
2018-07-07T05:28:27.384Z,2968
2018-07-07T05:29:36.520Z,2716
2018-07-07T05:30:45.383Z,2520
2018-07-07T05:31:54.622Z,2332
2018-07-07T05:33:03.542Z,2640
2018-07-07T05:34:12.402Z,2604
2018-07-07T05:35:21.264Z,2692
2018-07-07T05:36:30.125Z,2992
2018-07-07T05:37:38.985Z,3016
2018-07-07T05:38:48.197Z,3032
2018-07-07T05:39:57.061Z,3256
2018-07-07T05:41:05.924Z,3300
2018-07-07T05:42:14.792Z,3296
2018-07-07T05:43:23.658Z,3340
2018-07-07T05:44:33.355Z,3256
2018-07-07T05:45:42.499Z,2944
2018-07-07T05:46:51.635Z,2844
2018-07-07T05:48:00.503Z,3292
2018-07-07T05:49:09.365Z,3412
2018-07-07T05:50:18.228Z,3112
2018-07-07T05:51:27.092Z,3124
2018-07-07T05:52:36.232Z,2504
2018-07-07T05:53:45.092Z,2088
2018-07-07T05:54:53.955Z,2084
2018-07-07T05:56:02.819Z,1896
2018-07-07T05:57:11.680Z,1752
2018-07-07T05:58:20.819Z,2008
2018-07-07T05:59:29.681Z,1980
2018-07-07T06:00:38.545Z,2392
2018-07-07T06:01:47.555Z,3164
2018-07-07T06:02:56.420Z,3512
2018-07-07T06:04:05.281Z,3508
2018-07-07T06:05:14.140Z,3564
2018-07-07T06:06:23.008Z,3532
2018-07-07T06:07:32.022Z,3240
2018-07-07T06:08:41.162Z,2928
2018-07-07T06:09:50.025Z,2300
2018-07-07T06:10:58.884Z,1908
2018-07-07T06:12:07.750Z,1728
2018-07-07T06:13:17.316Z,1932
2018-07-07T06:14:26.534Z,1896
2018-07-07T06:15:35.739Z,1900
2018-07-07T06:16:44.600Z,2096
2018-07-07T06:17:53.735Z,1968
2018-07-07T06:19:02.601Z,1932
2018-07-07T06:20:11.464Z,1936
2018-07-07T06:21:20.600Z,2028
2018-07-07T06:22:29.462Z,1904
2018-07-07T06:23:38.325Z,1740
2018-07-07T06:24:47.537Z,1840
2018-07-07T06:25:56.396Z,2004
2018-07-07T06:27:05.537Z,2076
2018-07-07T06:28:14.675Z,2096
2018-07-07T06:29:23.541Z,2024
2018-07-07T06:30:32.402Z,1972
2018-07-07T06:31:41.264Z,2276
2018-07-07T06:32:50.129Z,4312
2018-07-07T06:33:58.991Z,2892
2018-07-07T06:35:08.126Z,1868
2018-07-07T06:36:17.340Z,1872
2018-07-07T06:37:26.618Z,2100
2018-07-07T06:38:35.832Z,2488
2018-07-07T06:39:44.695Z,2992
2018-07-07T06:40:53.553Z,3356
2018-07-07T06:42:02.415Z,3228
2018-07-07T06:43:11.279Z,2912
2018-07-07T06:44:20.140Z,3780
2018-07-07T06:45:29.003Z,4356
2018-07-07T06:46:37.865Z,4864
2018-07-07T06:47:47.024Z,5488
2018-07-07T06:48:55.887Z,5596
2018-07-07T06:50:04.750Z,5604
2018-07-07T06:51:13.611Z,5384
2018-07-07T06:52:22.474Z,5632
2018-07-07T06:53:31.332Z,5708
2018-07-07T06:54:40.193Z,5052
2018-07-07T06:55:49.056Z,4316
2018-07-07T06:56:57.916Z,4148
2018-07-07T06:58:06.783Z,4036
2018-07-07T06:59:16.075Z,4916
2018-07-07T07:00:24.941Z,4168
2018-07-07T07:01:33.807Z,3028
2018-07-07T07:02:42.674Z,4044
2018-07-07T07:03:51.813Z,4612
2018-07-07T07:05:00.676Z,6400
2018-07-07T07:06:09.536Z,5000
2018-07-07T07:07:18.399Z,3440
2018-07-07T07:08:27.543Z,2240
2018-07-07T07:09:36.406Z,2216
2018-07-07T07:10:45.271Z,2564
2018-07-07T07:11:54.483Z,3452
2018-07-07T07:13:03.322Z,4404
2018-07-07T07:14:12.185Z,6228
2018-07-07T07:15:21.047Z,6944
2018-07-07T07:16:30.064Z,7372
2018-07-07T07:17:38.926Z,6768
2018-07-07T07:18:47.789Z,7336
2018-07-07T07:19:56.970Z,7644
2018-07-07T07:21:06.112Z,6436
2018-07-07T07:22:15.128Z,5772
2018-07-07T07:23:24.541Z,5976
2018-07-07T07:24:33.403Z,4096
2018-07-07T07:25:42.270Z,3412
2018-07-07T07:26:51.133Z,4144
2018-07-07T07:28:00.551Z,4780
2018-07-07T07:29:09.414Z,4044
2018-07-07T07:30:18.279Z,3232
2018-07-07T07:31:27.142Z,3004
2018-07-07T07:32:36.025Z,3272
2018-07-07T07:33:45.450Z,6308
2018-07-07T07:34:54.598Z,6876
2018-07-07T07:36:03.469Z,6764
2018-07-07T07:37:12.607Z,7012
2018-07-07T07:38:21.473Z,8792
2018-07-07T07:39:30.487Z,7940
2018-07-07T07:40:39.350Z,8112
2018-07-07T07:41:48.215Z,8428
2018-07-07T07:42:57.079Z,6440
2018-07-07T07:44:06.233Z,4284
2018-07-07T07:45:15.250Z,5440
2018-07-07T07:46:24.117Z,4716
2018-07-07T07:47:33.259Z,5212
2018-07-07T07:48:42.120Z,4416
2018-07-07T07:49:50.984Z,4684
2018-07-07T07:50:59.850Z,5184
2018-07-07T07:52:08.992Z,6552
2018-07-07T07:53:17.861Z,8760
2018-07-07T07:54:26.726Z,8312
2018-07-07T07:55:35.880Z,6600
2018-07-07T07:56:45.024Z,6432
2018-07-07T07:57:54.452Z,6712
2018-07-07T07:59:03.697Z,8188
2018-07-07T08:00:12.885Z,8996
2018-07-07T08:01:21.751Z,8484
2018-07-07T08:02:30.616Z,7852
2018-07-07T08:03:39.479Z,8920
2018-07-07T08:04:48.367Z,9624
2018-07-07T08:05:57.564Z,9440
2018-07-07T08:07:06.429Z,8656
2018-07-07T08:08:15.569Z,8704
2018-07-07T08:09:24.712Z,9688
2018-07-07T08:10:33.573Z,10000
2018-07-07T08:11:42.440Z,9572
2018-07-07T08:12:51.579Z,9420
2018-07-07T08:14:00.452Z,8148
2018-07-07T08:15:09.597Z,8584
2018-07-07T08:16:18.742Z,7632
2018-07-07T08:17:27.880Z,9412
2018-07-07T08:18:36.747Z,7632
2018-07-07T08:19:45.763Z,6300
2018-07-07T08:20:54.635Z,7156
2018-07-07T08:22:03.794Z,9856
2018-07-07T08:23:12.665Z,8884
2018-07-07T08:24:21.528Z,8008
2018-07-07T08:25:30.393Z,8112
2018-07-07T08:26:39.258Z,7212
2018-07-07T08:27:48.122Z,9728
2018-07-07T08:28:57.263Z,10568
2018-07-07T08:30:06.129Z,10356
2018-07-07T08:31:14.994Z,6456
2018-07-07T08:32:24.132Z,5152
2018-07-07T08:33:32.995Z,5868
2018-07-07T08:34:41.859Z,6824
2018-07-07T08:35:50.725Z,7412
2018-07-07T08:36:59.967Z,7552
2018-07-07T08:38:09.112Z,7344
2018-07-07T08:39:17.977Z,7740
2018-07-07T08:40:27.119Z,8336
2018-07-07T08:41:35.985Z,9124
2018-07-07T08:42:45.129Z,10280
2018-07-07T08:43:53.992Z,9760
2018-07-07T08:45:03.137Z,9748
2018-07-07T08:46:12.004Z,10312
2018-07-07T08:47:20.864Z,10444
2018-07-07T08:48:30.159Z,9624
2018-07-07T08:49:39.025Z,10180
2018-07-07T08:50:48.169Z,9272
2018-07-07T08:51:57.321Z,7416
2018-07-07T08:53:06.187Z,9424
2018-07-07T08:54:15.202Z,9732
2018-07-07T08:55:25.061Z,10128
2018-07-07T08:56:33.925Z,8752
2018-07-07T08:57:42.794Z,7844
2018-07-07T08:58:51.657Z,7336
2018-07-07T09:00:00.526Z,6500
2018-07-07T09:01:09.669Z,6460
2018-07-07T09:02:18.604Z,6532
2018-07-07T09:03:27.401Z,6572
2018-07-07T09:04:36.375Z,8768
2018-07-07T09:05:45.241Z,8872
2018-07-07T09:06:54.384Z,9324
2018-07-07T09:08:03.249Z,10696
2018-07-07T09:09:12.119Z,11264
2018-07-07T09:10:21.262Z,11608
2018-07-07T09:11:30.128Z,12080
2018-07-07T09:12:38.994Z,11872
2018-07-07T09:13:47.860Z,11928
2018-07-07T09:14:56.726Z,11284
2018-07-07T09:16:05.874Z,8984
2018-07-07T09:17:14.747Z,7804
2018-07-07T09:18:23.889Z,7132
2018-07-07T09:19:32.757Z,9280
2018-07-07T09:20:41.919Z,10908
2018-07-07T09:21:51.064Z,11440
2018-07-07T09:22:59.930Z,11076
2018-07-07T09:24:08.801Z,9476
2018-07-07T09:25:17.687Z,9876
2018-07-07T09:26:26.547Z,10268
2018-07-07T09:27:35.956Z,9948
2018-07-07T09:28:45.640Z,10464
2018-07-07T09:29:55.634Z,10840
2018-07-07T09:31:06.027Z,11384
2018-07-07T09:32:16.242Z,11468
2018-07-07T09:33:25.491Z,9660
2018-07-07T09:34:34.361Z,8336
2018-07-07T09:35:43.498Z,9700
2018-07-07T09:36:52.364Z,10180
2018-07-07T09:38:01.233Z,10020
2018-07-07T09:39:10.648Z,9652
2018-07-07T09:40:19.518Z,10768
2018-07-07T09:41:28.398Z,11616
2018-07-07T09:42:37.424Z,11444
2018-07-07T09:43:46.844Z,10712
2018-07-07T09:44:55.709Z,11472
2018-07-07T09:46:04.577Z,10820
2018-07-07T09:47:13.500Z,9704
2018-07-07T09:48:22.640Z,10328
2018-07-07T09:49:31.783Z,13436
2018-07-07T09:50:40.650Z,13148
2018-07-07T09:51:49.516Z,11056
2018-07-07T09:52:58.657Z,10320
2018-07-07T09:54:07.624Z,11164
2018-07-07T09:55:16.490Z,11104
2018-07-07T09:56:26.450Z,9960
2018-07-07T09:57:35.605Z,10740
2018-07-07T09:58:44.472Z,9448
2018-07-07T09:59:53.505Z,12136
2018-07-07T10:01:02.448Z,11360
2018-07-07T10:02:11.612Z,11348
2018-07-07T10:03:20.480Z,12700
2018-07-07T10:04:29.659Z,12844
2018-07-07T10:05:38.798Z,10968
2018-07-07T10:06:47.661Z,10492
2018-07-07T10:07:56.527Z,12072
2018-07-07T10:09:05.393Z,11936
2018-07-07T10:10:14.260Z,8880
2018-07-07T10:11:23.278Z,7820
2018-07-07T10:12:32.145Z,5712
2018-07-07T10:13:41.289Z,7560
2018-07-07T10:14:50.156Z,12432
2018-07-07T10:15:59.026Z,11412
2018-07-07T10:17:07.888Z,10404
2018-07-07T10:18:16.753Z,9756
2018-07-07T10:19:25.616Z,8640
2018-07-07T10:20:34.537Z,10312
2018-07-07T10:21:43.346Z,9296
2018-07-07T10:22:52.211Z,11616
2018-07-07T10:24:01.358Z,12916
2018-07-07T10:25:10.778Z,12912
2018-07-07T10:26:19.960Z,9892
2018-07-07T10:27:29.108Z,7880
2018-07-07T10:28:38.415Z,9692
2018-07-07T10:29:48.426Z,7832
2018-07-07T10:30:57.293Z,7784
2018-07-07T10:32:06.247Z,13332
2018-07-07T10:33:15.113Z,12084
2018-07-07T10:34:24.002Z,11016
2018-07-07T10:35:32.871Z,10596
2018-07-07T10:36:41.732Z,10712
2018-07-07T10:37:50.884Z,10068
2018-07-07T10:38:59.752Z,8824
2018-07-07T10:40:08.619Z,9244
2018-07-07T10:41:17.485Z,7120
2018-07-07T10:42:26.629Z,7396
2018-07-07T10:43:35.777Z,6332
2018-07-07T10:44:44.713Z,8448
2018-07-07T10:45:54.322Z,8184
2018-07-07T10:47:03.933Z,7728
2018-07-07T10:48:12.793Z,9172
2018-07-07T10:49:21.955Z,8892
2018-07-07T10:50:30.933Z,10448
2018-07-07T10:51:39.797Z,7312
2018-07-07T10:52:48.662Z,6572
2018-07-07T10:53:57.531Z,9828
2018-07-07T10:55:06.546Z,12092
2018-07-07T10:56:15.407Z,12292
2018-07-07T10:57:24.301Z,12284
2018-07-07T10:58:33.453Z,11336
2018-07-07T10:59:42.892Z,9732
2018-07-07T11:00:52.038Z,9572
2018-07-07T11:02:01.761Z,7744
2018-07-07T11:03:10.668Z,10324
2018-07-07T11:04:19.915Z,9276
2018-07-07T11:05:28.869Z,6812
2018-07-07T11:06:37.760Z,6472
2018-07-07T11:07:47.460Z,7772
2018-07-07T11:08:56.604Z,11256
2018-07-07T11:10:05.499Z,12096
2018-07-07T11:11:14.514Z,12312
2018-07-07T11:12:23.380Z,11128
2018-07-07T11:13:32.248Z,6968
2018-07-07T11:14:41.150Z,6220
2018-07-07T11:15:50.191Z,4788
2018-07-07T11:16:59.053Z,4656
2018-07-07T11:18:07.931Z,4784
2018-07-07T11:19:16.856Z,5492
2018-07-07T11:20:25.719Z,5372
2018-07-07T11:21:34.585Z,6504
2018-07-07T11:22:43.453Z,6556
2018-07-07T11:23:52.321Z,7452
2018-07-07T11:25:01.459Z,6384
2018-07-07T11:26:10.651Z,7856
2018-07-07T11:27:19.519Z,9828
2018-07-07T11:28:28.383Z,11072
2018-07-07T11:29:37.252Z,14808
2018-07-07T11:30:46.414Z,13948
2018-07-07T11:31:55.279Z,13344
2018-07-07T11:33:04.146Z,13900
2018-07-07T11:34:13.164Z,10156
2018-07-07T11:35:22.032Z,9372
2018-07-07T11:36:30.983Z,8344
2018-07-07T11:37:39.766Z,8160
2018-07-07T11:38:48.632Z,7020
2018-07-07T11:39:58.207Z,6556
2018-07-07T11:41:07.071Z,6284
2018-07-07T11:42:16.012Z,6268
2018-07-07T11:43:25.174Z,7504
2018-07-07T11:44:34.076Z,10876
2018-07-07T11:45:43.349Z,14892
2018-07-07T11:46:52.310Z,14196
2018-07-07T11:48:01.597Z,10740
2018-07-07T11:49:11.246Z,9208
2018-07-07T11:50:20.999Z,7976
2018-07-07T11:51:30.731Z,9120
2018-07-07T11:52:40.329Z,9808
2018-07-07T11:53:50.347Z,8644
2018-07-07T11:55:00.303Z,7508
2018-07-07T11:56:10.412Z,8740
2018-07-07T11:57:20.802Z,12420
2018-07-07T11:58:29.951Z,15172
2018-07-07T11:59:39.098Z,21024
2018-07-07T12:00:47.967Z,45152
2018-07-07T12:01:56.880Z,85568
2018-07-07T12:03:06.092Z,10964
2018-07-07T12:04:14.958Z,80256
2018-07-07T12:05:23.825Z,82528
2018-07-07T12:06:32.707Z,86144
2018-07-07T12:07:41.576Z,85728
2018-07-07T12:08:50.871Z,86368
2018-07-07T12:10:00.025Z,83488
2018-07-07T12:11:08.883Z,86432
2018-07-07T12:12:17.753Z,71584
2018-07-07T12:13:26.621Z,77984
2018-07-07T12:14:36.255Z,81280
2018-07-07T12:15:45.136Z,83520
2018-07-07T12:16:54.014Z,81088
2018-07-07T12:18:02.885Z,19072
2018-07-07T12:19:11.762Z,22080
2018-07-07T12:20:20.635Z,60128
2018-07-07T12:21:29.515Z,25184
2018-07-07T12:22:38.667Z,58848
2018-07-07T12:23:47.541Z,91520
2018-07-07T12:24:56.419Z,97344
2018-07-07T12:26:05.345Z,92224
2018-07-07T12:27:14.213Z,85664
2018-07-07T12:28:23.359Z,86656
2018-07-07T12:29:32.244Z,68192
2018-07-07T12:30:41.116Z,37664
2018-07-07T12:31:49.988Z,79488
2018-07-07T12:32:59.426Z,87744
2018-07-07T12:34:08.297Z,37536
2018-07-07T12:35:17.448Z,96032
2018-07-07T12:36:26.325Z,40928
2018-07-07T12:37:35.303Z,87424
2018-07-07T12:38:44.175Z,91808
2018-07-07T12:39:53.386Z,90880
2018-07-07T12:41:02.457Z,20256
2018-07-07T12:42:11.423Z,21472
2018-07-07T12:43:21.434Z,20800
2018-07-07T12:44:30.318Z,84768
2018-07-07T12:45:39.195Z,23840
2018-07-07T12:46:48.075Z,30208
2018-07-07T12:47:56.974Z,66656
2018-07-07T12:49:05.883Z,11944
2018-07-07T12:50:14.800Z,55040
2018-07-07T12:51:23.676Z,73600
2018-07-07T12:52:32.655Z,65056
2018-07-07T12:53:41.694Z,58048
2018-07-07T12:54:50.643Z,62880
2018-07-07T12:55:59.530Z,67936
2018-07-07T12:57:08.969Z,71840
2018-07-07T12:58:18.155Z,83712
2018-07-07T12:59:27.337Z,79552
2018-07-07T13:00:36.219Z,79680
2018-07-07T13:01:45.411Z,89952
2018-07-07T13:02:54.332Z,22848
2018-07-07T13:04:03.209Z,21920
2018-07-07T13:05:12.396Z,88672
2018-07-07T13:06:21.362Z,87904
2018-07-07T13:07:30.271Z,86816
2018-07-07T13:08:39.173Z,83200
2018-07-07T13:09:48.054Z,83776
2018-07-07T13:10:57.285Z,23360
2018-07-07T13:12:06.181Z,35584
2018-07-07T13:13:15.102Z,84512
2018-07-07T13:14:24.266Z,85632
2018-07-07T13:15:33.205Z,83424
2018-07-07T13:16:42.104Z,86112
2018-07-07T13:17:51.125Z,90496
2018-07-07T13:19:00.001Z,92928
2018-07-07T13:20:09.304Z,91520
2018-07-07T13:21:18.193Z,89536
2018-07-07T13:22:27.644Z,87552
2018-07-07T13:23:36.716Z,89824
2018-07-07T13:24:45.912Z,95520
2018-07-07T13:25:54.828Z,89664
2018-07-07T13:27:03.988Z,94368
2018-07-07T13:28:12.933Z,95840
2018-07-07T13:29:21.988Z,91744
2018-07-07T13:30:31.236Z,87456
2018-07-07T13:31:40.416Z,91392
2018-07-07T13:32:49.733Z,89792
2018-07-07T13:33:58.720Z,90624
2018-07-07T13:35:07.941Z,96896
2018-07-07T13:36:16.914Z,23360
2018-07-07T13:37:25.820Z,95040
2018-07-07T13:38:35.462Z,16336
2018-07-07T13:39:44.961Z,96672
2018-07-07T13:40:54.074Z,93824
2018-07-07T13:42:03.143Z,95872
2018-07-07T13:43:12.231Z,95200
2018-07-07T13:44:21.293Z,86976
2018-07-07T13:45:30.419Z,59744
2018-07-07T13:46:39.979Z,83488
2018-07-07T13:47:48.939Z,89728
2018-07-07T13:48:58.071Z,84480
2018-07-07T13:50:07.453Z,81536
2018-07-07T13:51:16.429Z,79136
2018-07-07T13:52:25.637Z,80768
2018-07-07T13:53:34.818Z,73632
2018-07-07T13:54:44.441Z,22144
2018-07-07T13:55:53.336Z,54944
2018-07-07T13:57:02.514Z,83840
2018-07-07T13:58:11.413Z,75776
2018-07-07T13:59:20.355Z,87680
2018-07-07T14:00:29.270Z,90496
2018-07-07T14:01:38.500Z,88448
2018-07-07T14:02:47.525Z,86592
2018-07-07T14:03:57.438Z,86496
2018-07-07T14:05:06.634Z,89312
2018-07-07T14:06:15.767Z,55328
2018-07-07T14:07:25.043Z,71168
2018-07-07T14:08:34.274Z,90624
2018-07-07T14:09:43.464Z,89536
2018-07-07T14:10:52.609Z,84128
2018-07-07T14:12:01.863Z,83904
2018-07-07T14:13:11.325Z,82720
2018-07-07T14:14:20.706Z,85120
2018-07-07T14:15:30.007Z,88192
2018-07-07T14:16:39.398Z,85344
2018-07-07T14:17:48.475Z,81408
2018-07-07T14:18:57.368Z,82432
2018-07-07T14:20:06.312Z,81120
2018-07-07T14:21:15.511Z,79136
2018-07-07T14:22:24.557Z,82560
2018-07-07T14:23:33.461Z,85792
2018-07-07T14:24:42.458Z,82592
2018-07-07T14:25:51.686Z,79264
2018-07-07T14:27:00.772Z,80192
2018-07-07T14:28:09.953Z,81312
2018-07-07T14:29:19.244Z,82624
2018-07-07T14:30:28.508Z,87200
2018-07-07T14:31:37.601Z,85696
2018-07-07T14:32:46.856Z,84480
2018-07-07T14:33:55.759Z,85472
2018-07-07T14:35:05.405Z,85088
2018-07-07T14:36:14.748Z,87136
2018-07-07T14:37:23.766Z,87264
2018-07-07T14:38:33.250Z,78848
2018-07-07T14:39:42.145Z,73056
2018-07-07T14:40:51.324Z,74912
2018-07-07T14:42:00.218Z,74848
2018-07-07T14:43:09.434Z,80896
2018-07-07T14:44:18.506Z,80288
2018-07-07T14:45:27.898Z,81696
2018-07-07T14:46:37.300Z,77472
2018-07-07T14:47:46.197Z,82944
2018-07-07T14:48:55.124Z,80640
2018-07-07T14:50:04.169Z,78688
2018-07-07T14:51:13.233Z,82080
2018-07-07T14:52:22.760Z,82560
2018-07-07T14:53:31.920Z,82080
2018-07-07T14:54:41.553Z,81664
2018-07-07T14:55:50.658Z,80096
2018-07-07T14:56:59.850Z,77408
2018-07-07T14:58:08.976Z,81632
2018-07-07T14:59:17.741Z,82720
2018-07-07T15:00:26.961Z,78112
2018-07-07T15:01:35.978Z,82368
2018-07-07T15:02:44.920Z,82176
2018-07-07T15:03:53.806Z,81376
2018-07-07T15:05:02.721Z,82464
2018-07-07T15:06:11.677Z,80064
2018-07-07T15:07:20.722Z,78432
2018-07-07T15:08:29.655Z,65760
2018-07-07T15:09:38.563Z,84672
2018-07-07T15:10:47.522Z,82944
2018-07-07T15:11:56.480Z,77216
2018-07-07T15:13:05.504Z,71168
2018-07-07T15:14:14.520Z,68768
2018-07-07T15:15:23.399Z,68384
2018-07-07T15:16:32.277Z,69792
2018-07-07T15:17:41.156Z,65472
2018-07-07T15:18:50.412Z,69952
2018-07-07T15:19:59.316Z,71456
2018-07-07T15:21:08.302Z,70144
2018-07-07T15:22:17.304Z,67616
2018-07-07T15:23:26.252Z,67392
2018-07-07T15:24:35.511Z,69344
2018-07-07T15:25:44.468Z,68096
2018-07-07T15:26:53.372Z,62400
2018-07-07T15:28:02.303Z,65216
2018-07-07T15:29:11.187Z,70368